Time;durP1;ratioP1;P1;durP2;ratioP2;P2;SDS_P1;SDS_P2;PMS_P1;PMS_P2;Temp;Humidity;BMP_temperature;BMP_pressure;BME280_temperature;BME280_humidity;BME280_pressure;Samples;Min_cycle;Max_cycle;Signal;HPM_P1;HPM_P2
2023/10/03 00:03:00;;;;;;;16.50;11.30;;;;;;;12.86;100.00;99338.67;137620;1269;22722;-79
2023/10/03 00:06:03;;;;;;;21.00;12.20;;;;;;;12.89;100.00;99337.48;137330;1269;22206;-80
2023/10/03 00:09:05;;;;;;;17.10;11.70;;;;;;;12.93;100.00;99335.77;137548;1269;23257;-80
2023/10/03 00:12:08;;;;;;;19.30;12.70;;;;;;;12.97;100.00;99333.39;137838;1269;22313;-79
2023/10/03 00:15:12;;;;;;;19.30;12.40;;;;;;;13.14;100.00;99328.50;137487;1269;22197;-80
2023/10/03 00:18:13;;;;;;;18.20;12.70;;;;;;;13.14;100.00;99329.73;137345;1269;22977;-80
2023/10/03 00:21:14;;;;;;;14.20;11.50;;;;;;;13.13;100.00;99317.48;137924;1269;22229;-80
2023/10/03 00:24:16;;;;;;;21.20;12.30;;;;;;;13.16;100.00;99318.56;137393;1269;22729;-79
2023/10/03 00:27:17;;;;;;;18.90;11.40;;;;;;;13.17;100.00;99316.15;137389;1269;22532;-80
2023/10/03 00:30:19;;;;;;;19.50;12.50;;;;;;;13.19;100.00;99309.89;137823;1269;25243;-80
2023/10/03 00:33:23;;;;;;;39.00;24.40;;;;;;;13.21;100.00;99312.00;137426;1269;22206;-79
2023/10/03 00:36:25;;;;;;;21.10;14.20;;;;;;;13.24;100.00;99317.45;137317;1269;22265;-79
2023/10/03 00:39:27;;;;;;;19.60;12.70;;;;;;;13.28;100.00;99312.41;137583;1265;22627;-79
2023/10/03 00:42:28;;;;;;;16.80;12.00;;;;;;;13.30;100.00;99311.73;137770;1269;22171;-79
2023/10/03 00:45:30;;;;;;;17.20;11.20;;;;;;;13.31;100.00;99308.07;137403;1269;22345;-80
2023/10/03 00:48:31;;;;;;;15.50;11.50;;;;;;;13.31;100.00;99304.58;137373;1269;22550;-79
2023/10/03 00:51:32;;;;;;;18.80;11.70;;;;;;;13.31;100.00;99296.54;137811;1269;22659;-79
2023/10/03 00:54:33;;;;;;;14.70;10.80;;;;;;;13.30;100.00;99294.77;137344;1269;22527;-79
2023/10/03 00:57:34;;;;;;;16.00;10.80;;;;;;;13.29;100.00;99291.80;137304;1269;22336;-79
2023/10/03 01:00:38;;;;;;;16.80;12.20;;;;;;;13.31;100.00;99288.66;137861;1269;23180;-79
2023/10/03 01:03:39;;;;;;;16.10;10.60;;;;;;;13.30;100.00;99287.98;137486;1269;22168;-80
2023/10/03 01:06:41;;;;;;;70.10;14.80;;;;;;;13.30;100.00;99287.09;137323;1269;22205;-78
2023/10/03 01:09:42;;;;;;;101.90;16.60;;;;;;;13.31;100.00;99286.58;137443;1269;22551;-81
2023/10/03 01:12:44;;;;;;;18.10;11.70;;;;;;;13.32;100.00;99282.73;137678;1269;22240;-80
2023/10/03 01:15:45;;;;;;;17.90;12.00;;;;;;;13.33;100.00;99280.81;137391;1269;22372;-80
2023/10/03 01:18:47;;;;;;;16.30;10.70;;;;;;;13.31;100.00;99283.77;137456;1269;22546;-80
2023/10/03 01:21:50;;;;;;;16.80;10.70;;;;;;;13.30;100.00;99278.00;137842;1269;22183;-80
2023/10/03 01:24:51;;;;;;;20.60;11.80;;;;;;;13.30;100.00;99280.27;137420;1269;22201;-80
2023/10/03 01:27:53;;;;;;;17.60;11.70;;;;;;;13.32;100.00;99279.59;137397;1269;22178;-79
2023/10/03 01:30:54;;;;;;;17.40;11.90;;;;;;;13.33;100.00;99281.69;137955;1269;22572;-79
2023/10/03 01:33:55;;;;;;;16.10;13.10;;;;;;;13.32;100.00;99281.86;137427;1269;22319;-79
2023/10/03 01:36:58;;;;;;;51.80;14.30;;;;;;;13.33;100.00;99277.14;137662;1269;22204;-81
2023/10/03 01:39:59;;;;;;;19.20;11.90;;;;;;;13.35;100.00;99281.88;137886;1262;22942;-80
2023/10/03 01:43:00;;;;;;;18.50;12.30;;;;;;;13.35;100.00;99279.97;137786;1269;22176;-80
2023/10/03 01:46:01;;;;;;;37.90;13.80;;;;;;;13.35;100.00;99278.21;137892;1269;22900;-79
2023/10/03 01:49:02;;;;;;;57.80;20.10;;;;;;;13.32;100.00;99277.84;137964;1269;22203;-80
2023/10/03 01:52:04;;;;;;;20.60;13.70;;;;;;;13.34;100.00;99279.26;137898;1269;22741;-79
2023/10/03 01:55:05;;;;;;;16.80;12.00;;;;;;;13.31;100.00;99272.23;137852;1269;22545;-79
2023/10/03 01:58:06;;;;;;;15.80;11.50;;;;;;;13.26;100.00;99269.92;137801;1269;22191;-80
2023/10/03 02:01:07;;;;;;;43.10;13.00;;;;;;;13.22;100.00;99271.11;137966;1269;24437;-80
2023/10/03 02:04:10;;;;;;;16.50;12.10;;;;;;;13.20;100.00;99267.09;137241;1269;24862;-78
2023/10/03 02:07:11;;;;;;;19.40;13.00;;;;;;;13.17;100.00;99264.25;137360;1269;22171;-80
2023/10/03 02:10:13;;;;;;;17.90;11.90;;;;;;;13.15;100.00;99268.23;137821;1269;22520;-81
2023/10/03 02:13:14;;;;;;;19.30;12.80;;;;;;;13.13;100.00;99270.32;137319;1269;22562;-80
2023/10/03 02:16:17;;;;;;;30.40;13.00;;;;;;;13.12;100.00;99268.39;137449;1269;22185;-81
2023/10/03 02:19:21;;;;;;;19.20;13.30;;;;;;;13.09;100.00;99266.27;137642;1269;25356;-82
2023/10/03 02:22:22;;;;;;;18.00;12.30;;;;;;;13.06;100.00;99260.64;137591;1269;22170;-81
2023/10/03 02:25:25;;;;;;;23.90;14.50;;;;;;;13.02;100.00;99260.08;137304;1269;22261;-81
2023/10/03 02:28:27;;;;;;;279.80;25.90;;;;;;;12.98;100.00;99257.40;137434;1269;22559;-82
2023/10/03 02:31:28;;;;;;;29.70;14.00;;;;;;;12.96;100.00;99255.81;137813;1269;22186;-82
2023/10/03 02:34:31;;;;;;;18.20;12.60;;;;;;;12.94;100.00;99251.42;137468;1269;22160;-81
2023/10/03 02:37:33;;;;;;;20.00;11.80;;;;;;;12.91;100.00;99252.10;137408;1269;22686;-81
2023/10/03 02:40:34;;;;;;;28.90;13.20;;;;;;;12.86;100.00;99246.98;137975;1269;22215;-81
2023/10/03 02:43:35;;;;;;;23.60;13.50;;;;;;;12.82;100.00;99241.02;137389;1269;22210;-80
2023/10/03 02:46:36;;;;;;;20.50;12.60;;;;;;;12.79;100.00;99241.51;137476;1269;22279;-81
2023/10/03 02:49:38;;;;;;;16.90;12.80;;;;;;;12.77;100.00;99238.17;137702;1269;22705;-81
2023/10/03 02:52:39;;;;;;;24.50;13.80;;;;;;;12.74;100.00;99234.65;137620;1269;22118;-82
2023/10/03 02:55:41;;;;;;;21.20;13.10;;;;;;;12.73;100.00;99235.51;137421;1269;22290;-80
2023/10/03 02:58:42;;;;;;;25.00;13.10;;;;;;;12.72;100.00;99233.77;137543;1255;22593;-83
2023/10/03 03:01:51;;;;;;;25.20;13.50;;;;;;;12.73;100.00;99233.25;137775;1269;22438;-81
2023/10/03 03:04:54;;;;;;;20.40;13.30;;;;;;;12.73;100.00;99229.41;137349;1269;22564;-81
2023/10/03 03:07:59;;;;;;;25.20;12.80;;;;;;;12.72;100.00;99226.61;137200;1269;200176;-80
2023/10/03 03:11:00;;;;;;;20.80;13.40;;;;;;;12.71;100.00;99222.92;138025;1269;22227;-81
2023/10/03 03:14:01;;;;;;;17.60;13.10;;;;;;;12.67;100.00;99225.16;137353;1269;22249;-80
2023/10/03 03:17:06;;;;;;;24.80;13.70;;;;;;;12.64;100.00;99222.33;137332;1269;22213;-81
2023/10/03 03:20:08;;;;;;;41.30;25.30;;;;;;;12.63;100.00;99219.88;137722;1269;22535;-82
2023/10/03 03:23:13;;;;;;;40.80;28.50;;;;;;;12.62;100.00;99220.22;137551;1269;22280;-81
2023/10/03 03:26:20;;;;;;;37.60;14.80;;;;;;;12.59;100.00;99208.48;137452;1269;22239;-78
2023/10/03 03:29:21;;;;;;;28.90;14.60;;;;;;;12.57;100.00;99202.36;137540;1269;24189;-81
2023/10/03 03:32:27;;;;;;;19.00;13.20;;;;;;;12.56;100.00;99199.39;137929;1269;22406;-81
2023/10/03 03:35:28;;;;;;;20.80;13.70;;;;;;;12.54;100.00;99197.10;137380;1269;22292;-81
2023/10/03 03:38:31;;;;;;;19.50;12.30;;;;;;;12.50;100.00;99193.39;137399;1269;22284;-81
2023/10/03 03:41:32;;;;;;;16.20;12.10;;;;;;;12.47;100.00;99189.70;137919;1269;22340;-81
2023/10/03 03:44:33;;;;;;;23.50;12.30;;;;;;;12.44;100.00;99187.23;137477;1269;22223;-81
2023/10/03 03:47:34;;;;;;;18.70;12.30;;;;;;;12.42;100.00;99182.85;137404;1269;22248;-81
2023/10/03 03:50:36;;;;;;;26.20;13.00;;;;;;;12.40;100.00;99184.74;137783;1269;22517;-81
2023/10/03 03:53:37;;;;;;;19.50;12.50;;;;;;;12.38;100.00;99182.46;137558;1269;22243;-81
2023/10/03 03:56:40;;;;;;;14.30;11.80;;;;;;;12.50;100.00;99181.34;137710;1269;22203;-80
2023/10/03 03:59:41;;;;;;;18.60;11.50;;;;;;;12.91;100.00;99179.43;137874;1269;22259;-81
2023/10/03 04:02:42;;;;;;;15.90;12.60;;;;;;;12.80;100.00;99180.21;137847;1269;22199;-80
2023/10/03 04:05:45;;;;;;;19.40;12.40;;;;;;;12.68;100.00;99176.46;137878;1269;22235;-81
2023/10/03 04:08:46;;;;;;;1999.90;199.20;;;;;;;12.58;100.00;99176.53;137623;1269;22540;-82
2023/10/03 04:11:48;;;;;;;83.40;19.10;;;;;;;12.51;100.00;99173.69;137787;1269;22211;-79
2023/10/03 04:14:49;;;;;;;29.00;12.40;;;;;;;12.46;100.00;99170.48;137829;1269;22166;-81
2023/10/03 04:17:50;;;;;;;17.70;11.70;;;;;;;12.38;100.00;99163.95;137828;1269;22181;-81
2023/10/03 04:20:52;;;;;;;35.60;14.30;;;;;;;12.33;100.00;99165.13;137851;1269;22290;-75
2023/10/03 04:23:53;;;;;;;28.40;12.30;;;;;;;12.30;100.00;99164.40;137844;1262;23059;-81
2023/10/03 04:26:57;;;;;;;21.70;12.30;;;;;;;12.27;100.00;99162.27;137808;1269;22213;-81
2023/10/03 04:30:00;;;;;;;15.50;11.30;;;;;;;12.25;100.00;99162.95;137555;1269;22940;-82
2023/10/03 04:33:02;;;;;;;129.20;19.10;;;;;;;12.23;100.00;99165.38;137905;1269;22340;-82
2023/10/03 04:36:04;;;;;;;28.10;12.00;;;;;;;12.23;100.00;99162.58;137402;1269;22247;-82
2023/10/03 04:39:05;;;;;;;30.30;12.10;;;;;;;12.22;100.00;99159.60;137474;1269;22584;-83
2023/10/03 04:42:06;;;;;;;27.00;12.90;;;;;;;12.19;100.00;99156.79;137676;1269;22386;-81
2023/10/03 04:45:10;;;;;;;48.70;12.80;;;;;;;12.19;100.00;99156.44;136964;1269;22740;-80
2023/10/03 04:48:12;;;;;;;28.90;12.00;;;;;;;12.16;100.00;99154.14;137881;1269;22169;-83
2023/10/03 04:51:13;;;;;;;23.40;16.90;;;;;;;12.14;100.00;99150.44;137826;1269;22821;-83
2023/10/03 04:54:16;;;;;;;71.20;18.00;;;;;;;12.14;100.00;99142.06;137871;1269;22815;-84
2023/10/03 04:57:17;;;;;;;17.60;12.30;;;;;;;12.16;100.00;99140.36;137924;1269;22562;-81
2023/10/03 05:00:18;;;;;;;21.00;10.80;;;;;;;12.18;100.00;99137.75;137905;1269;23150;-82
2023/10/03 05:03:19;;;;;;;26.10;12.30;;;;;;;12.20;100.00;99141.79;137889;1259;22380;-83
2023/10/03 05:06:21;;;;;;;22.00;11.60;;;;;;;12.22;100.00;99141.46;137646;1269;22553;-82
2023/10/03 05:09:22;;;;;;;19.40;11.30;;;;;;;12.24;100.00;99142.70;137866;1269;22435;-83
2023/10/03 05:12:24;;;;;;;16.80;11.60;;;;;;;12.28;100.00;99140.13;137592;1269;22245;-83
2023/10/03 05:15:26;;;;;;;17.90;11.80;;;;;;;12.31;100.00;99140.68;137926;1269;22182;-83
2023/10/03 05:18:29;;;;;;;17.30;11.20;;;;;;;12.34;100.00;99144.73;137969;1269;22718;-81
2023/10/03 05:21:32;;;;;;;20.60;11.00;;;;;;;12.38;100.00;99142.84;137696;1261;22207;-81
2023/10/03 05:24:33;;;;;;;19.50;11.20;;;;;;;12.45;100.00;99143.25;137962;1269;22806;-83
2023/10/03 05:27:35;;;;;;;23.60;10.90;;;;;;;12.51;100.00;99144.17;137792;1269;22259;-82
2023/10/03 05:30:38;;;;;;;22.80;11.30;;;;;;;12.58;100.00;99143.89;137741;1269;22163;-83
2023/10/03 05:33:39;;;;;;;27.90;11.90;;;;;;;12.66;100.00;99146.05;137479;1269;22260;-83
2023/10/03 05:36:40;;;;;;;17.40;9.90;;;;;;;12.70;100.00;99146.27;137621;1265;22190;-83
2023/10/03 05:39:41;;;;;;;12.50;9.80;;;;;;;12.75;100.00;99142.11;137432;1265;22187;-84
2023/10/03 05:42:43;;;;;;;19.90;9.70;;;;;;;12.83;100.00;99140.95;137979;1269;22214;-83
2023/10/03 05:45:49;;;;;;;16.70;9.10;;;;;;;12.93;100.00;99138.58;137937;1269;22253;-83
2023/10/03 05:48:51;;;;;;;20.90;10.10;;;;;;;13.04;100.00;99136.77;137715;1269;22374;-83
2023/10/03 05:51:58;;;;;;;13.10;9.50;;;;;;;13.18;100.00;99133.38;137966;1269;22333;-83
2023/10/03 05:54:59;;;;;;;1999.90;241.70;;;;;;;13.31;100.00;99132.23;137934;1269;22159;-82
2023/10/03 05:58:00;;;;;;;60.70;14.30;;;;;;;13.45;100.00;99128.81;137726;1269;22662;-83
2023/10/03 06:01:01;;;;;;;20.10;9.40;;;;;;;13.58;100.00;99128.88;137459;1269;22520;-83
2023/10/03 06:04:04;;;;;;;15.30;8.90;;;;;;;13.72;100.00;99129.27;137864;1265;22126;-82
2023/10/03 06:07:06;;;;;;;36.70;10.20;;;;;;;13.86;100.00;99135.46;137421;1269;22267;-83
2023/10/03 06:10:10;;;;;;;14.20;8.80;;;;;;;14.01;100.00;99133.77;137453;1269;22794;-84
2023/10/03 06:13:11;;;;;;;11.70;8.50;;;;;;;14.18;100.00;99131.54;137948;1269;22235;-83
2023/10/03 06:16:14;;;;;;;12.30;8.70;;;;;;;14.36;100.00;99125.79;137434;1269;22373;-83
2023/10/03 06:19:18;;;;;;;23.60;10.00;;;;;;;14.52;100.00;99121.98;137505;1269;22571;-78
2023/10/03 06:22:19;;;;;;;70.00;12.60;;;;;;;14.65;100.00;99116.39;137565;1269;22272;-82
2023/10/03 06:25:20;;;;;;;19.40;8.80;;;;;;;14.80;100.00;99115.17;137817;1269;22521;-82
2023/10/03 06:28:22;;;;;;;11.80;8.80;;;;;;;14.96;100.00;99116.91;137670;1269;22551;-82
2023/10/03 06:31:23;;;;;;;34.90;8.80;;;;;;;15.12;100.00;99113.02;137779;1269;22300;-79
2023/10/03 06:34:25;;;;;;;26.40;8.80;;;;;;;15.30;100.00;99108.77;137868;1269;22221;-82
2023/10/03 06:37:26;;;;;;;9.60;7.90;;;;;;;15.49;100.00;99106.95;137983;1269;22515;-81
2023/10/03 06:40:27;;;;;;;13.20;7.90;;;;;;;15.67;100.00;99104.84;138013;1269;22290;-83
2023/10/03 06:43:29;;;;;;;53.00;11.70;;;;;;;15.82;100.00;99106.34;137913;1269;22174;-83
2023/10/03 06:46:30;;;;;;;101.10;13.00;;;;;;;16.00;100.00;99106.42;137989;1269;22151;-82
2023/10/03 06:49:31;;;;;;;35.30;10.00;;;;;;;16.14;100.00;99109.33;137913;1268;22203;-83
2023/10/03 06:52:32;;;;;;;14.60;8.60;;;;;;;16.33;100.00;99110.08;137735;1269;22277;-82
2023/10/03 06:55:35;;;;;;;19.60;8.20;;;;;;;16.52;100.00;99106.08;137931;1269;22718;-83
2023/10/03 06:58:36;;;;;;;30.50;10.20;;;;;;;16.72;100.00;99107.02;137883;1269;22205;-81
2023/10/03 07:01:38;;;;;;;25.10;8.50;;;;;;;16.87;100.00;99107.06;137450;1269;22239;-82
2023/10/03 07:04:39;;;;;;;37.90;9.30;;;;;;;17.01;100.00;99104.45;137899;1269;22323;-81
2023/10/03 07:07:40;;;;;;;12.10;8.20;;;;;;;17.12;100.00;99104.52;137907;1269;22371;-83
2023/10/03 07:10:42;;;;;;;14.50;8.10;;;;;;;17.32;100.00;99103.09;137910;1269;22727;-82
2023/10/03 07:13:43;;;;;;;12.30;7.50;;;;;;;17.55;100.00;99101.44;137895;1269;22074;-82
2023/10/03 07:16:46;;;;;;;14.70;8.00;;;;;;;17.72;100.00;99100.54;137897;1269;22208;-81
2023/10/03 07:19:48;;;;;;;14.60;8.80;;;;;;;17.90;100.00;99096.27;137895;1260;22225;-82
2023/10/03 07:22:49;;;;;;;16.10;8.30;;;;;;;18.06;100.00;99093.91;137944;1269;22086;-82
2023/10/03 07:25:51;;;;;;;11.20;7.40;;;;;;;18.23;100.00;99094.23;137888;1269;22209;-82
2023/10/03 07:28:57;;;;;;;19.70;8.30;;;;;;;18.43;100.00;99096.22;137900;1269;22219;-83
2023/10/03 07:31:58;;;;;;;18.90;7.50;;;;;;;18.61;100.00;99088.54;137887;1269;22066;-81
2023/10/03 07:34:59;;;;;;;14.50;8.20;;;;;;;18.73;100.00;99086.59;137891;1269;22238;-82
2023/10/03 07:38:00;;;;;;;17.50;8.30;;;;;;;18.86;100.00;99081.95;137871;1269;22264;-82
2023/10/03 07:41:01;;;;;;;525.70;42.60;;;;;;;18.99;100.00;99079.77;137900;1269;22137;-82
2023/10/03 07:44:04;;;;;;;35.20;9.70;;;;;;;19.23;100.00;99080.05;137918;1269;22348;-84
2023/10/03 07:47:08;;;;;;;25.80;7.90;;;;;;;19.78;100.00;99072.60;137942;1269;22175;-84
2023/10/03 07:50:11;;;;;;;27.30;8.60;;;;;;;20.25;100.00;99069.80;137715;1246;22642;-84
2023/10/03 07:53:12;;;;;;;23.20;8.10;;;;;;;20.47;100.00;99073.38;137825;1269;22228;-84
2023/10/03 07:56:13;;;;;;;20.70;8.40;;;;;;;20.51;100.00;99071.48;137419;1269;22452;-85
2023/10/03 07:59:15;;;;;;;27.40;7.70;;;;;;;20.74;100.00;99065.61;137710;1269;23135;-84
2023/10/03 08:02:19;;;;;;;16.50;8.00;;;;;;;21.39;100.00;99068.67;137701;1269;22756;-85
2023/10/03 08:05:27;;;;;;;17.80;7.50;;;;;;;21.93;100.00;99066.06;137880;1258;22131;-85
2023/10/03 08:08:33;;;;;;;16.70;7.30;;;;;;;22.27;100.00;99060.59;137880;1269;22141;-84
2023/10/03 08:11:35;;;;;;;11.70;7.00;;;;;;;22.43;100.00;99059.70;137876;1269;22226;-83
2023/10/03 08:14:52;;;;;;;25.50;7.60;;;;;;;22.58;100.00;99048.95;137835;1269;22192;-82
2023/10/03 08:18:10;;;;;;;23.20;8.30;;;;;;;22.83;100.00;99048.33;137626;1269;22595;-85
2023/10/03 08:21:29;;;;;;;26.80;7.30;;;;;;;23.07;100.00;99044.98;137649;1265;22659;-84
2023/10/03 08:24:30;;;;;;;12.00;7.40;;;;;;;22.94;73.36;99047.06;137759;1269;22220;-84
2023/10/03 08:27:32;;;;;;;18.50;7.80;;;;;;;22.96;66.52;99046.10;137825;1269;22668;-85
2023/10/03 08:30:35;;;;;;;20.50;7.40;;;;;;;23.06;65.63;99043.61;137929;1269;22745;-83
2023/10/03 08:33:41;;;;;;;53.20;9.10;;;;;;;23.16;65.27;99040.21;137608;1269;22306;-84
2023/10/03 08:36:42;;;;;;;23.30;8.00;;;;;;;23.30;64.41;99037.40;137914;1269;22464;-84
2023/10/03 08:39:45;;;;;;;52.40;8.80;;;;;;;23.29;64.94;99032.13;137916;1269;22603;-80
2023/10/03 08:42:52;;;;;;;40.90;10.10;;;;;;;23.40;64.68;99031.38;137915;1269;22693;-81
2023/10/03 08:45:53;;;;;;;33.80;9.30;;;;;;;23.57;65.05;99025.79;137933;1269;22371;-84
2023/10/03 08:49:00;;;;;;;42.20;9.30;;;;;;;23.74;63.88;99022.85;137913;1269;23270;-83
2023/10/03 08:52:03;;;;;;;27.00;8.80;;;;;;;23.85;63.87;99019.22;137853;1269;22387;-84
2023/10/03 08:55:06;;;;;;;22.90;8.60;;;;;;;23.93;61.67;99016.58;137568;1269;22554;-84
2023/10/03 08:58:08;;;;;;;25.70;7.70;;;;;;;23.95;61.66;99016.13;137968;1269;22100;-81
2023/10/03 09:01:17;;;;;;;32.50;10.30;;;;;;;24.03;62.27;99010.12;137948;1269;22849;-84
2023/10/03 09:04:18;;;;;;;25.40;8.90;;;;;;;24.02;62.14;99002.52;137965;1269;22343;-84
2023/10/03 09:07:19;;;;;;;27.40;8.30;;;;;;;24.13;61.33;99005.30;137905;1261;22599;-83
2023/10/03 09:10:23;;;;;;;43.10;9.30;;;;;;;24.22;61.23;99000.11;137756;1269;22258;-81
2023/10/03 09:13:24;;;;;;;33.10;8.90;;;;;;;24.21;61.22;98995.73;137429;1269;23011;-79
2023/10/03 09:16:26;;;;;;;74.80;12.20;;;;;;;24.24;61.09;98988.68;136994;1269;22523;-85
2023/10/03 09:19:27;;;;;;;41.60;10.00;;;;;;;24.34;60.99;98985.10;137895;1269;22724;-83
2023/10/03 09:22:30;;;;;;;34.10;9.00;;;;;;;24.56;60.38;98985.44;137873;1269;22385;-84
2023/10/03 09:25:32;;;;;;;54.30;10.90;;;;;;;24.69;59.63;98983.05;137847;1269;22322;-83
2023/10/03 09:28:35;;;;;;;54.10;10.30;;;;;;;24.68;58.95;98979.91;137907;1269;22568;-86
2023/10/03 09:31:41;;;;;;;25.90;8.10;;;;;;;24.69;59.20;98976.49;137859;1269;22158;-83
2023/10/03 09:34:42;;;;;;;19.70;7.80;;;;;;;24.73;59.53;98973.09;137774;1256;22202;-84
2023/10/03 09:37:48;;;;;;;100.30;13.00;;;;;;;24.87;59.63;98970.90;137883;1269;22375;-83
2023/10/03 09:40:50;;;;;;;73.50;11.00;;;;;;;25.01;59.87;98970.47;137601;1269;22366;-84
2023/10/03 09:43:53;;;;;;;26.70;8.10;;;;;;;25.13;59.47;98968.86;137617;1269;22765;-84
2023/10/03 09:46:55;;;;;;;24.90;7.70;;;;;;;25.14;58.21;98967.77;137877;1269;22113;-83
2023/10/03 09:50:03;;;;;;;25.90;7.90;;;;;;;25.05;57.58;98965.33;137856;1269;22247;-83
2023/10/03 09:53:06;;;;;;;26.20;8.90;;;;;;;25.04;57.54;98967.14;137880;1269;22386;-84
2023/10/03 09:56:08;;;;;;;27.30;8.00;;;;;;;25.07;57.57;98961.84;137899;1269;22712;-84
2023/10/03 09:59:09;;;;;;;45.50;9.80;;;;;;;25.16;57.50;98959.70;137909;1269;22362;-85
2023/10/03 10:02:12;;;;;;;42.00;9.20;;;;;;;25.27;58.09;98960.42;137887;1269;22276;-87
2023/10/03 10:05:19;;;;;;;18.20;7.40;;;;;;;25.35;57.49;98959.14;137758;1266;22651;-85
2023/10/03 10:08:20;;;;;;;27.90;8.50;;;;;;;25.40;57.94;98950.19;137829;1269;22255;-87
2023/10/03 10:11:23;;;;;;;52.30;10.60;;;;;;;25.43;57.93;98947.91;137539;1269;22248;-85
2023/10/03 10:14:25;;;;;;;32.30;9.00;;;;;;;25.52;57.87;98947.68;138005;1269;22355;-80
2023/10/03 10:17:32;;;;;;;24.00;8.80;;;;;;;25.59;57.58;98940.73;137928;1269;22086;-81
2023/10/03 10:20:37;;;;;;;23.70;9.60;;;;;;;25.66;57.67;98936.14;137895;1269;22313;-80
2023/10/03 10:23:39;;;;;;;28.00;7.80;;;;;;;25.74;57.23;98932.73;137916;1269;22570;-79
2023/10/03 10:26:48;;;;;;;15.70;7.50;;;;;;;25.76;56.96;98926.24;137888;1269;22241;-81
2023/10/03 10:29:50;;;;;;;10.90;7.30;;;;;;;25.76;56.09;98921.94;137895;1265;22235;-80
2023/10/03 10:32:52;;;;;;;89.90;10.30;;;;;;;25.81;55.97;98919.20;137934;1269;21954;-81
2023/10/03 10:35:55;;;;;;;41.10;8.20;;;;;;;25.89;55.38;98912.05;137885;1269;22996;-79
2023/10/03 10:38:59;;;;;;;41.50;8.50;;;;;;;25.84;54.49;98908.01;137893;1269;22321;-81
2023/10/03 10:42:03;;;;;;;29.20;7.80;;;;;;;25.83;54.52;98903.79;137894;1269;22236;-82
2023/10/03 10:45:04;;;;;;;54.50;8.80;;;;;;;25.91;54.75;98900.00;137939;1269;23097;-85
2023/10/03 10:48:05;;;;;;;18.10;8.20;;;;;;;25.99;54.10;98894.60;137924;1269;22856;-84
2023/10/03 10:51:10;;;;;;;20.70;7.30;;;;;;;26.04;53.25;98887.60;137916;1269;22233;-84
2023/10/03 10:54:11;;;;;;;25.60;8.60;;;;;;;26.08;53.58;98882.44;137958;1269;22779;-84
2023/10/03 10:57:14;;;;;;;18.00;7.50;;;;;;;26.12;54.02;98887.24;137949;1269;22279;-85
2023/10/03 11:00:16;;;;;;;14.20;6.80;;;;;;;26.14;54.83;98879.45;137905;1269;22500;-82
2023/10/03 11:03:18;;;;;;;13.40;7.20;;;;;;;26.19;54.01;98873.64;137960;1269;22467;-84
2023/10/03 11:06:19;;;;;;;18.60;7.40;;;;;;;26.25;54.61;98869.22;137917;1269;22349;-83
2023/10/03 11:09:20;;;;;;;22.50;7.60;;;;;;;26.35;54.41;98864.48;137962;1269;22104;-84
2023/10/03 11:12:22;;;;;;;24.30;7.50;;;;;;;26.31;54.31;98860.71;137951;1269;22770;-83
2023/10/03 11:15:26;;;;;;;18.00;7.20;;;;;;;26.31;54.44;98860.53;137951;1269;22755;-85
2023/10/03 11:18:27;;;;;;;27.70;8.60;;;;;;;26.36;53.94;98860.52;137962;1269;22704;-82
2023/10/03 11:21:30;;;;;;;23.20;8.30;;;;;;;26.32;53.34;98856.79;137894;1269;22228;-83
2023/10/03 11:24:33;;;;;;;82.00;13.40;;;;;;;26.28;53.08;98852.87;137946;1269;22004;-85
2023/10/03 11:27:34;;;;;;;13.80;7.00;;;;;;;26.30;53.81;98849.38;137965;1269;22117;-84
2023/10/03 11:30:36;;;;;;;12.70;7.10;;;;;;;26.31;53.64;98843.59;137878;1269;22228;-82
2023/10/03 11:33:38;;;;;;;20.30;7.10;;;;;;;26.29;53.41;98835.29;137934;1269;22285;-84
2023/10/03 11:36:39;;;;;;;14.00;6.70;;;;;;;26.34;53.57;98832.20;137851;1269;22564;-82
2023/10/03 11:39:40;;;;;;;21.30;7.70;;;;;;;26.38;53.35;98820.77;137949;1269;22198;-83
2023/10/03 11:42:41;;;;;;;20.50;7.00;;;;;;;26.49;53.35;98818.39;137919;1269;22605;-84
2023/10/03 11:45:46;;;;;;;12.60;6.70;;;;;;;26.52;53.26;98808.75;137913;1269;22368;-84
2023/10/03 11:48:47;;;;;;;22.20;7.90;;;;;;;26.50;53.24;98805.48;137924;1269;22275;-84
2023/10/03 11:51:53;;;;;;;25.30;7.50;;;;;;;26.52;53.38;98807.73;137427;1269;22219;-84
2023/10/03 11:54:59;;;;;;;15.20;6.50;;;;;;;26.57;53.32;98803.87;137720;1269;22570;-85
2023/10/03 11:58:10;;;;;;;23.40;7.60;;;;;;;26.61;53.07;98801.35;138015;1269;22097;-84
2023/10/03 12:01:17;;;;;;;27.00;7.80;;;;;;;26.56;52.63;98794.27;137961;1269;22912;-84
2023/10/03 12:04:19;;;;;;;32.10;8.40;;;;;;;26.50;53.18;98794.45;137625;1265;22404;-84
2023/10/03 12:07:23;;;;;;;14.50;6.50;;;;;;;26.55;51.96;98788.97;137901;1269;22561;-84
2023/10/03 12:10:25;;;;;;;66.30;10.40;;;;;;;26.56;51.12;98785.36;137853;1269;22328;-86
2023/10/03 12:13:26;;;;;;;18.50;7.30;;;;;;;26.56;50.20;98777.34;137542;1269;22476;-86
2023/10/03 12:16:29;;;;;;;80.50;10.70;;;;;;;26.56;50.81;98775.72;137796;1269;22839;-82
2023/10/03 12:19:31;;;;;;;68.00;9.70;;;;;;;26.61;49.78;98766.70;137972;1269;22559;-83
2023/10/03 12:22:32;;;;;;;34.00;8.70;;;;;;;26.73;49.46;98762.16;137676;1269;22543;-83
2023/10/03 12:25:33;;;;;;;17.20;7.70;;;;;;;26.74;48.49;98760.48;137737;1269;22544;-82
2023/10/03 12:28:35;;;;;;;31.80;8.70;;;;;;;26.80;47.27;98769.58;137844;1269;22632;-83
2023/10/03 12:31:36;;;;;;;20.40;7.70;;;;;;;26.81;46.27;98767.07;138055;1269;22306;-84
2023/10/03 12:34:46;;;;;;;23.50;8.90;;;;;;;26.86;46.79;98763.41;138056;1267;22379;-84
2023/10/03 12:37:48;;;;;;;14.80;7.40;;;;;;;26.94;47.05;98764.90;138007;1269;23242;-85
2023/10/03 12:41:06;;;;;;;13.50;8.00;;;;;;;27.00;46.89;98759.80;137488;1269;22631;-83
2023/10/03 12:44:10;;;;;;;21.30;8.40;;;;;;;27.00;46.91;98756.59;137885;1269;22369;-85
2023/10/03 12:47:12;;;;;;;15.50;8.80;;;;;;;27.03;46.92;98751.23;137785;1264;22266;-84
2023/10/03 12:50:20;;;;;;;16.40;8.80;;;;;;;27.07;46.26;98743.53;137857;1269;22606;-84
2023/10/03 12:53:22;;;;;;;16.40;9.40;;;;;;;27.05;46.25;98736.45;137809;1269;22316;-85
2023/10/03 12:56:27;;;;;;;15.90;8.10;;;;;;;27.07;46.11;98732.95;137980;1269;22791;-86
2023/10/03 12:59:31;;;;;;;17.20;9.30;;;;;;;27.08;45.70;98725.03;137572;1269;22897;-85
2023/10/03 13:02:34;;;;;;;17.30;9.00;;;;;;;27.07;45.43;98721.34;137526;1269;22267;-85
2023/10/03 13:05:35;;;;;;;17.20;9.20;;;;;;;27.10;45.73;98716.34;137986;1269;22895;-85
2023/10/03 13:08:36;;;;;;;34.00;10.20;;;;;;;27.12;45.45;98711.95;137437;1269;22547;-83
2023/10/03 13:11:38;;;;;;;36.40;11.40;;;;;;;27.18;45.58;98710.53;137877;1269;22239;-84
2023/10/03 13:14:39;;;;;;;33.20;10.50;;;;;;;27.24;45.49;98708.39;137849;1269;22549;-84
2023/10/03 13:17:41;;;;;;;39.60;10.40;;;;;;;27.22;45.19;98707.06;137941;1269;22247;-84
2023/10/03 13:20:43;;;;;;;29.60;10.50;;;;;;;27.29;44.91;98704.50;137556;1269;22578;-82
2023/10/03 13:23:45;;;;;;;121.10;18.20;;;;;;;27.28;44.29;98700.49;137948;1269;22326;-82
2023/10/03 13:26:47;;;;;;;43.60;11.90;;;;;;;27.21;44.19;98696.92;137649;1269;22449;-82
2023/10/03 13:29:51;;;;;;;27.60;11.50;;;;;;;27.18;44.10;98698.39;137919;1269;22184;-81
2023/10/03 13:32:54;;;;;;;26.60;11.50;;;;;;;27.06;43.87;98695.14;137958;1269;22202;-81
2023/10/03 13:35:55;;;;;;;28.20;11.70;;;;;;;27.02;44.12;98690.77;137793;1269;22077;-81
2023/10/03 13:38:57;;;;;;;24.30;11.80;;;;;;;27.03;44.13;98696.77;137953;1269;22272;-81
2023/10/03 13:41:59;;;;;;;23.90;11.60;;;;;;;27.07;44.66;98695.48;137981;1269;22360;-83
2023/10/03 13:45:00;;;;;;;34.90;11.50;;;;;;;27.16;44.65;98689.38;137983;1269;22196;-82
2023/10/03 13:48:02;;;;;;;25.10;11.90;;;;;;;27.12;44.12;98688.01;137383;1269;22549;-80